Time;durP1;ratioP1;P1;durP2;ratioP2;P2;SDS_P1;SDS_P2;PMS_P1;PMS_P2;Temp;Humidity;BMP_temperature;BMP_pressure;BME280_temperature;BME280_humidity;BME280_pressure;Samples;Min_cycle;Max_cycle;Signal;HPM_P1;HPM_P2
2021/07/09 00:01:58;;;;;;;7.90;4.63;;;16.80;99.80;;;;;;4929232;28;20482;-87
2021/07/09 00:04:26;;;;;;;8.10;5.53;;;16.80;99.80;;;;;;4934997;28;20483;-87
2021/07/09 00:06:55;;;;;;;9.00;5.80;;;16.80;99.80;;;;;;4945516;28;20473;-87
2021/07/09 00:09:25;;;;;;;8.43;6.70;;;16.80;99.80;;;;;;4947098;28;20552;-88
2021/07/09 00:11:55;;;;;;;7.33;5.30;;;16.80;99.80;;;;;;4935059;28;20478;-88
2021/07/09 00:14:26;;;;;;;9.73;5.60;;;16.80;99.80;;;;;;4938288;28;20843;-87
2021/07/09 00:16:54;;;;;;;5.60;5.10;;;16.80;99.80;;;;;;4949920;28;20469;-87
2021/07/09 00:19:22;;;;;;;5.10;4.70;;;16.80;99.80;;;;;;4946086;28;20488;-87
2021/07/09 00:21:50;;;;;;;9.60;4.57;;;16.80;99.80;;;;;;4941811;28;20510;-88
2021/07/09 00:24:19;;;;;;;10.20;5.40;;;16.80;99.80;;;;;;4939334;28;20485;-88
2021/07/09 00:26:49;;;;;;;8.03;5.77;;;16.80;99.80;;;;;;4951257;28;20502;-88
2021/07/09 00:29:17;;;;;;;9.50;5.53;;;16.80;99.80;;;;;;4949379;28;20483;-88
2021/07/09 00:31:45;;;;;;;6.30;5.33;;;16.80;99.80;;;;;;4944389;28;20578;-88
2021/07/09 00:34:14;;;;;;;8.13;5.40;;;16.80;99.80;;;;;;4956537;28;21001;-88
2021/07/09 00:36:42;;;;;;;5.37;4.87;;;16.80;99.80;;;;;;4945234;28;20551;-88
2021/07/09 00:39:10;;;;;;;5.10;4.70;;;16.80;99.80;;;;;;4950581;28;20478;-87
2021/07/09 00:41:38;;;;;;;10.23;4.87;;;16.80;99.80;;;;;;4947073;28;20844;-88
2021/07/09 00:44:08;;;;;;;5.60;5.10;;;16.70;99.80;;;;;;4934234;28;20518;-88
2021/07/09 00:46:38;;;;;;;9.20;5.43;;;16.80;99.80;;;;;;4940101;28;20468;-88
2021/07/09 00:49:06;;;;;;;5.10;4.50;;;16.80;99.80;;;;;;4944220;28;20493;-88
2021/07/09 00:51:35;;;;;;;8.73;5.53;;;16.70;99.80;;;;;;4943328;28;21337;-87
2021/07/09 00:54:03;;;;;;;10.70;5.40;;;16.70;99.80;;;;;;4943339;28;20471;-88
2021/07/09 00:56:32;;;;;;;6.27;5.63;;;16.70;99.80;;;;;;4942281;28;20494;-88
2021/07/09 00:59:02;;;;;;;5.27;4.77;;;16.80;99.80;;;;;;4941874;28;20483;-88
2021/07/09 01:01:32;;;;;;;6.23;5.03;;;16.70;99.80;;;;;;4945988;28;20479;-87
2021/07/09 01:04:00;;;;;;;6.60;5.53;;;16.80;99.80;;;;;;4953314;28;20534;-88
2021/07/09 01:06:28;;;;;;;7.83;5.20;;;16.80;99.80;;;;;;4952974;28;20491;-87
2021/07/09 01:08:56;;;;;;;6.07;5.50;;;16.80;99.80;;;;;;4949941;28;20485;-89
2021/07/09 01:11:24;;;;;;;11.13;6.93;;;16.80;99.80;;;;;;4944584;28;20477;-87
2021/07/09 01:13:53;;;;;;;11.13;6.23;;;16.80;99.80;;;;;;4938343;28;20482;-87
2021/07/09 01:16:21;;;;;;;5.37;4.87;;;16.80;99.80;;;;;;4940503;28;20489;-87
2021/07/09 01:18:51;;;;;;;5.93;5.23;;;16.80;99.80;;;;;;4953579;28;20582;-88
2021/07/09 01:21:19;;;;;;;6.30;5.70;;;16.80;99.80;;;;;;4957500;28;20468;-87
2021/07/09 01:23:57;;;;;;;6.47;5.60;;;16.80;99.80;;;;;;4942451;28;20494;-88
2021/07/09 01:26:25;;;;;;;10.70;6.27;;;16.80;99.80;;;;;;4943147;28;21001;-87
2021/07/09 01:28:53;;;;;;;5.97;5.47;;;16.80;99.80;;;;;;4935484;28;20470;-87
2021/07/09 01:31:21;;;;;;;5.80;5.23;;;16.80;99.80;;;;;;4950972;28;21016;-87
2021/07/09 01:33:49;;;;;;;7.60;5.50;;;16.80;99.80;;;;;;4953793;28;20479;-87
2021/07/09 01:36:18;;;;;;;6.50;5.33;;;16.80;99.80;;;;;;4946827;28;20489;-88
2021/07/09 01:38:46;;;;;;;6.70;5.37;;;16.80;99.80;;;;;;4953626;28;20481;-87
2021/07/09 01:41:16;;;;;;;8.07;5.50;;;16.70;99.80;;;;;;4952623;28;20467;-87
2021/07/09 01:43:45;;;;;;;8.70;6.00;;;16.70;99.80;;;;;;4947884;28;20476;-87
2021/07/09 01:46:13;;;;;;;12.90;5.90;;;16.70;99.80;;;;;;4953900;28;20502;-88
2021/07/09 01:48:41;;;;;;;6.37;5.77;;;16.70;99.80;;;;;;4952642;28;20906;-87
2021/07/09 01:51:09;;;;;;;7.07;5.73;;;16.70;99.80;;;;;;4952155;28;20476;-87
2021/07/09 01:53:37;;;;;;;8.93;5.23;;;16.70;99.80;;;;;;4940915;28;20489;-87
2021/07/09 01:56:06;;;;;;;8.07;5.43;;;16.70;99.80;;;;;;4945589;28;20456;-87
2021/07/09 01:58:35;;;;;;;9.00;6.00;;;16.70;99.80;;;;;;4945954;28;20501;-87
2021/07/09 02:01:03;;;;;;;6.70;5.90;;;16.70;99.80;;;;;;4945777;28;20885;-87
2021/07/09 02:03:31;;;;;;;7.43;5.90;;;16.70;99.80;;;;;;4956324;28;20482;-87
2021/07/09 02:05:59;;;;;;;9.17;6.53;;;16.70;99.80;;;;;;4950948;28;20524;-87
2021/07/09 02:08:27;;;;;;;8.30;6.03;;;16.70;99.80;;;;;;4960857;28;20497;-87
2021/07/09 02:10:55;;;;;;;7.00;6.30;;;16.70;99.80;;;;;;4963397;28;20459;-87
2021/07/09 02:13:23;;;;;;;9.40;6.60;;;16.70;99.80;;;;;;4960119;28;20491;-87
2021/07/09 02:15:52;;;;;;;7.97;6.33;;;16.70;99.80;;;;;;4955863;28;20550;-87
2021/07/09 02:18:21;;;;;;;9.17;6.47;;;;;;;;;;4921100;28;20497;-87
2021/07/09 02:20:49;;;;;;;9.00;7.00;;;16.70;99.80;;;;;;4946408;28;20517;-87
2021/07/09 02:23:17;;;;;;;10.40;7.13;;;16.70;99.80;;;;;;4944613;28;20491;-88
2021/07/09 02:25:45;;;;;;;7.97;6.70;;;16.60;99.80;;;;;;4949710;28;20475;-88
2021/07/09 02:28:13;;;;;;;7.87;6.57;;;16.60;99.80;;;;;;4942531;28;20488;-88
2021/07/09 02:30:41;;;;;;;8.20;6.40;;;16.70;99.80;;;;;;4949759;28;20494;-88
2021/07/09 02:33:11;;;;;;;8.67;6.70;;;16.60;99.80;;;;;;4945150;28;20493;-88
2021/07/09 02:35:40;;;;;;;7.27;6.57;;;16.60;99.80;;;;;;4953188;28;20537;-88
2021/07/09 02:38:09;;;;;;;9.93;7.00;;;16.60;99.80;;;;;;4958294;28;21004;-88
2021/07/09 02:40:39;;;;;;;8.53;6.90;;;16.60;99.80;;;;;;4939959;28;20475;-88
2021/07/09 02:43:07;;;;;;;7.80;7.00;;;16.60;99.80;;;;;;4945929;28;20495;-88
2021/07/09 02:45:36;;;;;;;11.60;7.00;;;16.60;99.80;;;;;;4947434;28;20476;-88
2021/07/09 02:48:18;;;;;;;8.47;6.90;;;16.60;99.80;;;;;;4950959;28;20486;-88
2021/07/09 02:50:47;;;;;;;11.20;6.77;;;16.60;99.80;;;;;;4943671;28;20466;-88
2021/07/09 02:53:15;;;;;;;9.47;7.20;;;16.60;99.80;;;;;;4940186;28;20471;-88
2021/07/09 02:55:43;;;;;;;6.67;6.07;;;16.70;99.80;;;;;;4953523;28;20838;-88
2021/07/09 02:58:12;;;;;;;7.43;6.73;;;16.60;99.80;;;;;;4962367;28;20467;-88
2021/07/09 03:00:40;;;;;;;8.93;6.60;;;16.60;99.80;;;;;;4939530;28;20466;-88
2021/07/09 03:03:09;;;;;;;8.20;6.63;;;16.60;99.80;;;;;;4945085;28;20484;-88
2021/07/09 03:05:38;;;;;;;7.80;6.23;;;16.60;99.80;;;;;;4954428;28;20873;-88
2021/07/09 03:08:06;;;;;;;10.70;6.47;;;16.60;99.80;;;;;;4945290;28;20494;-88
2021/07/09 03:10:34;;;;;;;9.33;6.43;;;16.60;99.80;;;;;;4939412;28;20487;-87
2021/07/09 03:13:03;;;;;;;8.30;7.13;;;16.60;99.80;;;;;;4940896;28;20487;-88
2021/07/09 03:15:32;;;;;;;7.67;6.33;;;16.60;99.80;;;;;;4954418;28;20519;-88
2021/07/09 03:18:00;;;;;;;10.60;7.13;;;16.60;99.80;;;;;;4952820;28;20494;-88
2021/07/09 03:20:28;;;;;;;7.53;6.83;;;16.60;99.80;;;;;;4949732;28;20480;-88
2021/07/09 03:22:57;;;;;;;12.63;6.90;;;16.60;99.80;;;;;;4957150;28;20482;-88
2021/07/09 03:25:25;;;;;;;8.30;7.40;;;16.60;99.80;;;;;;4950614;28;20488;-88
2021/07/09 03:27:53;;;;;;;15.10;7.80;;;16.60;99.80;;;;;;4938872;28;20487;-88
2021/07/09 03:30:21;;;;;;;12.23;6.90;;;16.60;99.80;;;;;;4937647;28;20485;-88
2021/07/09 03:32:50;;;;;;;14.30;8.10;;;16.50;99.80;;;;;;4954771;28;20896;-88
2021/07/09 03:35:18;;;;;;;12.90;8.00;;;16.50;99.80;;;;;;4948230;28;20479;-88
2021/07/09 03:37:46;;;;;;;10.73;7.20;;;16.50;99.80;;;;;;4945266;28;20482;-88
2021/07/09 03:40:17;;;;;;;8.40;7.60;;;16.50;99.80;;;;;;4948597;28;20485;-89
2021/07/09 03:42:45;;;;;;;9.43;7.00;;;16.50;99.80;;;;;;4947102;28;21042;-88
2021/07/09 03:45:13;;;;;;;12.10;9.07;;;16.50;99.80;;;;;;4951184;28;20492;-88
2021/07/09 03:47:41;;;;;;;8.50;7.50;;;16.50;99.80;;;;;;4953336;28;20483;-88
2021/07/09 03:50:09;;;;;;;10.77;7.20;;;16.50;99.80;;;;;;4951215;28;20481;-88
2021/07/09 03:52:37;;;;;;;8.00;7.20;;;16.50;99.80;;;;;;4940529;28;20494;-88
2021/07/09 03:55:07;;;;;;;9.80;7.80;;;16.50;99.80;;;;;;4942144;28;20469;-88
2021/07/09 03:57:36;;;;;;;8.73;7.87;;;16.50;99.80;;;;;;4953381;28;20473;-88
2021/07/09 04:00:06;;;;;;;10.30;7.37;;;16.50;99.80;;;;;;4938884;28;20454;-88
2021/07/09 04:02:34;;;;;;;10.77;7.77;;;16.50;99.80;;;;;;4951965;28;21053;-88
2021/07/09 04:05:02;;;;;;;8.47;7.67;;;16.50;99.80;;;;;;4951621;28;20485;-87
2021/07/09 04:07:30;;;;;;;10.33;8.27;;;16.50;99.80;;;;;;4934997;28;20473;-87
2021/07/09 04:09:58;;;;;;;8.63;7.73;;;16.50;99.80;;;;;;4930570;28;20479;-88
2021/07/09 04:12:26;;;;;;;12.97;8.30;;;16.40;99.80;;;;;;4952858;28;20482;-88
2021/07/09 04:14:55;;;;;;;9.43;7.73;;;16.40;99.80;;;;;;4942773;28;20467;-87
2021/07/09 04:17:23;;;;;;;11.33;7.97;;;16.40;99.80;;;;;;4941908;28;20462;-88
2021/07/09 04:19:51;;;;;;;11.53;8.23;;;;;;;;;;4956016;28;20474;-88
2021/07/09 04:22:19;;;;;;;10.20;8.53;;;16.40;99.80;;;;;;4952981;28;20505;-88
2021/07/09 04:24:48;;;;;;;10.20;8.80;;;16.40;99.80;;;;;;4946823;28;20485;-88
2021/07/09 04:27:16;;;;;;;10.00;8.97;;;16.40;99.80;;;;;;4944834;28;20496;-88
2021/07/09 04:29:44;;;;;;;11.93;8.77;;;16.40;99.80;;;;;;4944864;28;20470;-88
2021/07/09 04:32:13;;;;;;;10.73;8.40;;;16.40;99.80;;;;;;4956095;28;20474;-88
2021/07/09 04:34:42;;;;;;;11.83;9.07;;;16.40;99.80;;;;;;4939422;28;20485;-88
2021/07/09 04:37:10;;;;;;;13.90;9.40;;;16.40;99.80;;;;;;4943879;28;20470;-88
2021/07/09 04:39:39;;;;;;;13.77;9.90;;;16.40;99.80;;;;;;4935789;28;22137;-88
2021/07/09 04:42:08;;;;;;;10.20;8.70;;;16.40;99.80;;;;;;4948290;28;20500;-88
2021/07/09 04:44:36;;;;;;;11.67;9.97;;;16.40;99.80;;;;;;4943388;28;20482;-88
2021/07/09 04:47:05;;;;;;;10.13;9.07;;;16.40;99.80;;;;;;4947730;28;20476;-88
2021/07/09 04:49:34;;;;;;;13.23;10.10;;;16.40;99.80;;;;;;4955078;28;20504;-87
2021/07/09 04:52:02;;;;;;;12.03;9.97;;;16.40;99.80;;;;;;4951466;28;20480;-88
2021/07/09 04:54:30;;;;;;;12.60;9.63;;;16.40;99.80;;;;;;4959780;28;21175;-87
2021/07/09 04:56:58;;;;;;;10.10;9.10;;;16.40;99.80;;;;;;4955187;28;20506;-88
2021/07/09 04:59:27;;;;;;;11.53;9.90;;;;;;;;;;4949932;28;20983;-87
2021/07/09 05:01:55;;;;;;;11.33;9.90;;;16.50;99.80;;;;;;4957424;28;20489;-88
2021/07/09 05:04:23;;;;;;;17.27;9.40;;;16.50;99.80;;;;;;4941503;28;21141;-88
2021/07/09 05:06:52;;;;;;;14.23;10.23;;;16.50;99.80;;;;;;4949189;28;20480;-88
2021/07/09 05:09:20;;;;;;;12.67;9.37;;;;;;;;;;4954314;28;21083;-88
2021/07/09 05:11:49;;;;;;;17.37;10.80;;;16.60;99.80;;;;;;4939259;28;20514;-88
2021/07/09 05:14:17;;;;;;;10.90;9.80;;;16.60;99.80;;;;;;4948575;28;20513;-90
2021/07/09 05:16:45;;;;;;;13.90;10.00;;;16.60;99.80;;;;;;4950289;28;20477;-90
2021/07/09 05:19:13;;;;;;;11.73;9.77;;;;;;;;;;4954025;28;20483;-90
2021/07/09 05:21:42;;;;;;;14.60;10.57;;;16.70;99.80;;;;;;4954139;28;20534;-90
2021/07/09 05:24:12;;;;;;;11.53;10.30;;;16.70;99.80;;;;;;4955521;28;20467;-89
2021/07/09 05:26:42;;;;;;;13.93;9.23;;;16.70;99.80;;;;;;4945052;28;20482;-94
2021/07/09 05:29:11;;;;;;;13.43;10.40;;;16.80;99.80;;;;;;4955200;28;20485;-93
2021/07/09 05:31:41;;;;;;;14.57;10.40;;;16.80;99.80;;;;;;4958725;28;20470;-92
2021/07/09 05:34:10;;;;;;;14.40;10.73;;;16.90;99.80;;;;;;4961504;28;20501;-92
2021/07/09 05:36:39;;;;;;;16.80;10.93;;;16.90;99.80;;;;;;4956767;28;20635;-93
2021/07/09 05:39:15;;;;;;;12.50;10.53;;;16.90;99.80;;;;;;4947651;28;20997;-92
2021/07/09 05:41:44;;;;;;;14.03;10.30;;;17.00;99.80;;;;;;4949809;28;20486;-93
2021/07/09 05:44:12;;;;;;;12.20;8.83;;;17.00;99.80;;;;;;4953643;28;20470;-92
2021/07/09 05:46:40;;;;;;;10.70;9.60;;;17.10;99.80;;;;;;4950625;28;20530;-92
2021/07/09 05:49:08;;;;;;;10.00;9.00;;;17.10;99.80;;;;;;4948738;28;20746;-93
2021/07/09 05:51:54;;;;;;;13.40;11.80;;;17.20;99.80;;;;;;4952190;28;20471;-92
2021/07/09 05:54:23;;;;;;;14.13;10.73;;;17.20;99.80;;;;;;4948946;28;20484;-91
2021/07/09 05:56:53;;;;;;;12.80;10.93;;;17.30;99.80;;;;;;4946599;28;20477;-91
2021/07/09 05:59:21;;;;;;;12.30;9.67;;;17.30;99.80;;;;;;4941699;28;20569;-91
2021/07/09 06:01:50;;;;;;;12.73;10.00;;;17.40;99.80;;;;;;4949644;28;20470;-91
2021/07/09 06:04:18;;;;;;;15.60;11.47;;;17.40;99.80;;;;;;4951936;28;20986;-92
2021/07/09 06:06:47;;;;;;;12.83;11.03;;;17.50;99.80;;;;;;4953128;28;21064;-92
2021/07/09 06:09:15;;;;;;;12.90;11.60;;;17.60;99.80;;;;;;4944820;28;20475;-92
2021/07/09 06:11:45;;;;;;;13.93;10.60;;;17.70;99.80;;;;;;4945826;28;20488;-92
2021/07/09 06:14:14;;;;;;;12.93;11.20;;;17.70;99.80;;;;;;4945309;28;20550;-96
2021/07/09 06:16:46;;;;;;;10.97;9.73;;;17.70;99.80;;;;;;4963716;28;20463;-96
2021/07/09 14:35:57;;;;;;;9.70;7.07;;;20.60;99.80;;;;;;4928007;28;20465;-89
2021/07/09 14:38:25;;;;;;;7.53;6.83;;;20.50;99.80;;;;;;4924789;29;20496;-88
2021/07/09 14:40:53;;;;;;;7.60;6.40;;;20.40;99.80;;;;;;4924278;29;20489;-88
2021/07/09 14:43:21;;;;;;;10.73;7.60;;;;;;;;;;4916666;29;20891;-88
2021/07/09 14:45:49;;;;;;;11.50;7.37;;;20.50;99.80;;;;;;4921653;29;20489;-89
2021/07/09 14:48:17;;;;;;;7.87;7.17;;;20.60;99.80;;;;;;4925080;29;20477;-89
2021/07/09 14:50:45;;;;;;;7.73;7.00;;;20.80;99.80;;;;;;4923217;29;20556;-89
2021/07/09 14:53:15;;;;;;;9.20;7.17;;;21.00;99.80;;;;;;4921688;28;20490;-88
2021/07/09 14:55:44;;;;;;;8.70;7.10;;;21.00;99.80;;;;;;4914873;28;20476;-88
2021/07/09 14:58:12;;;;;;;8.67;7.30;;;21.00;99.80;;;;;;4915664;28;20599;-88
2021/07/09 15:00:40;;;;;;;8.50;7.70;;;21.00;99.80;;;;;;4916554;28;20470;-88
2021/07/09 15:03:08;;;;;;;7.47;6.77;;;20.90;99.80;;;;;;4919914;28;20943;-89
2021/07/09 15:05:36;;;;;;;8.43;7.57;;;20.80;99.80;;;;;;4916567;29;21095;-88
2021/07/09 15:08:04;;;;;;;8.50;7.60;;;20.70;99.80;;;;;;4918284;29;20473;-88
2021/07/09 15:10:34;;;;;;;11.83;7.47;;;20.70;99.80;;;;;;4915292;29;20507;-88
2021/07/09 15:13:02;;;;;;;10.50;7.67;;;20.70;99.80;;;;;;4922727;29;20581;-88
2021/07/09 15:15:46;;;;;;;8.40;7.60;;;20.60;99.80;;;;;;4918383;29;20484;-88
2021/07/09 15:18:14;;;;;;;11.00;7.97;;;20.60;99.80;;;;;;4921833;29;20469;-88
2021/07/09 15:20:43;;;;;;;11.67;8.60;;;20.60;99.80;;;;;;4917999;29;20477;-88
2021/07/09 15:23:11;;;;;;;8.30;7.60;;;20.50;99.80;;;;;;4919126;29;21095;-88
2021/07/09 15:25:51;;;;;;;10.73;8.47;;;20.40;99.80;;;;;;4907180;29;21059;-88
2021/07/09 15:28:19;;;;;;;9.20;7.83;;;20.30;99.80;;;;;;4913925;29;20480;-88
2021/07/09 15:30:47;;;;;;;10.87;7.67;;;20.30;99.80;;;;;;4918956;29;20496;-88
2021/07/09 15:33:16;;;;;;;10.20;8.47;;;20.20;99.80;;;;;;4921397;29;21076;-89
2021/07/09 15:35:45;;;;;;;10.20;7.33;;;20.10;99.80;;;;;;4916214;29;21059;-89
2021/07/09 15:38:13;;;;;;;10.50;9.13;;;20.10;99.80;;;;;;4914099;29;20510;-88
2021/07/09 15:40:51;;;;;;;8.80;7.90;;;20.10;99.80;;;;;;4910239;29;20838;-88
2021/07/09 15:43:20;;;;;;;8.60;7.80;;;20.20;99.80;;;;;;4923992;29;20523;-88
2021/07/09 15:45:48;;;;;;;10.07;8.63;;;20.30;99.80;;;;;;4918018;29;20476;-88
2021/07/09 15:48:16;;;;;;;9.37;8.37;;;20.40;99.80;;;;;;4925733;29;20904;-90
2021/07/09 15:50:44;;;;;;;9.60;8.70;;;20.40;99.80;;;;;;4922317;29;20493;-88
2021/07/09 15:53:12;;;;;;;9.73;8.40;;;20.40;99.80;;;;;;4920396;29;20483;-88
2021/07/09 15:55:40;;;;;;;9.70;8.70;;;20.40;99.80;;;;;;4920593;29;20855;-88
2021/07/09 15:58:10;;;;;;;8.37;7.57;;;20.40;99.80;;;;;;4923919;28;20477;-88
2021/07/09 16:00:47;;;;;;;9.87;8.87;;;20.20;99.80;;;;;;4920690;29;20481;-88
2021/07/09 16:03:15;;;;;;;9.17;7.60;;;20.10;99.80;;;;;;4916471;29;21087;-88
2021/07/09 16:05:44;;;;;;;13.77;8.70;;;20.10;99.80;;;;;;4923272;29;20500;-88
2021/07/09 16:08:12;;;;;;;10.27;8.67;;;20.00;99.80;;;;;;4918385;29;20579;-88
2021/07/09 16:10:41;;;;;;;9.67;8.53;;;19.90;99.80;;;;;;4909378;29;21024;-88
2021/07/09 16:13:10;;;;;;;10.77;7.93;;;19.70;99.80;;;;;;4919965;29;20523;-88
2021/07/09 16:15:39;;;;;;;9.73;8.73;;;19.70;99.80;;;;;;4922749;29;20482;-89
2021/07/09 16:18:07;;;;;;;13.20;9.20;;;;;;;;;;4926471;29;20549;-89
2021/07/09 16:20:35;;;;;;;11.63;8.63;;;19.70;99.80;;;;;;4929080;29;21005;-88
2021/07/09 16:23:04;;;;;;;7.77;7.07;;;19.90;99.80;;;;;;4926454;29;20488;-89
2021/07/09 16:25:32;;;;;;;9.37;8.47;;;20.10;99.80;;;;;;4928515;29;20481;-90
2021/07/09 16:28:00;;;;;;;9.37;8.47;;;20.40;99.80;;;;;;4921446;29;20477;-90
2021/07/09 16:30:30;;;;;;;8.20;7.40;;;20.70;99.80;;;;;;4923892;29;20477;-90
2021/07/09 16:33:07;;;;;;;8.90;8.00;;;21.20;99.80;;;;;;4928254;29;20531;-90
2021/07/09 16:35:35;;;;;;;9.47;7.83;;;21.60;99.80;;;;;;4925921;29;21192;-90
2021/07/09 16:38:03;;;;;;;7.50;6.43;;;21.90;99.80;;;;;;4924009;29;20476;-90
2021/07/09 16:40:32;;;;;;;11.50;6.50;;;22.20;99.80;;;;;;4923594;29;20473;-89
2021/07/09 16:43:01;;;;;;;6.60;6.00;;;22.40;99.80;;;;;;4916603;29;20476;-89
2021/07/09 16:45:31;;;;;;;7.77;6.67;;;22.40;99.80;;;;;;4923041;29;20479;-91
2021/07/09 16:48:00;;;;;;;7.60;6.43;;;22.30;99.80;;;;;;4914525;29;20543;-89
2021/07/09 16:50:29;;;;;;;8.63;6.97;;;22.20;99.80;;;;;;4924790;29;20492;-89
2021/07/09 16:52:58;;;;;;;9.63;7.47;;;22.00;99.80;;;;;;4922897;29;20493;-88
2021/07/09 16:55:26;;;;;;;10.13;7.00;;;21.80;99.80;;;;;;4916571;29;20476;-89
2021/07/09 16:57:55;;;;;;;9.93;7.80;;;21.50;99.80;;;;;;4917933;29;20479;-89
2021/07/09 17:00:23;;;;;;;9.60;6.97;;;21.20;99.80;;;;;;4925035;29;20476;-89
2021/07/09 17:02:52;;;;;;;9.40;8.30;;;20.90;99.80;;;;;;4937642;29;20477;-90
2021/07/09 17:05:20;;;;;;;8.97;8.10;;;20.60;99.80;;;;;;4923847;29;20907;-89
2021/07/09 17:07:48;;;;;;;13.60;8.43;;;20.40;99.80;;;;;;4912267;29;20475;-89
2021/07/09 17:10:17;;;;;;;8.53;7.73;;;20.20;99.80;;;;;;4909983;29;20512;-91
2021/07/09 17:12:45;;;;;;;9.20;8.27;;;20.10;99.80;;;;;;4921193;29;20487;-91
2021/07/09 17:15:14;;;;;;;10.60;9.20;;;20.00;99.80;;;;;;4922329;29;20487;-92
2021/07/09 17:17:42;;;;;;;10.10;9.10;;;19.90;99.80;;;;;;4926907;29;20565;-90
2021/07/09 17:20:12;;;;;;;11.67;9.03;;;19.90;99.80;;;;;;4916425;29;20508;-91
2021/07/09 17:22:44;;;;;;;11.33;8.63;;;19.90;99.80;;;;;;4907486;29;21031;-90
2021/07/09 17:25:13;;;;;;;11.13;8.60;;;19.80;99.80;;;;;;4913410;29;20486;-90
2021/07/09 17:27:44;;;;;;;10.40;8.33;;;19.90;99.80;;;;;;4918515;29;20473;-89
2021/07/09 17:30:14;;;;;;;12.67;8.27;;;20.00;99.80;;;;;;4907452;29;20511;-90
2021/07/09 17:32:42;;;;;;;13.70;8.67;;;20.00;99.80;;;;;;4913241;29;21409;-89
2021/07/09 17:35:12;;;;;;;10.17;8.57;;;20.00;99.80;;;;;;4927059;29;20474;-89
2021/07/09 17:37:40;;;;;;;10.93;8.80;;;20.00;99.80;;;;;;4924579;29;20476;-90
2021/07/09 17:40:09;;;;;;;10.20;8.57;;;20.00;99.80;;;;;;4918714;29;20491;-90
2021/07/09 17:42:50;;;;;;;10.60;9.07;;;19.90;99.80;;;;;;4935952;28;20586;-90
2021/07/09 17:45:18;;;;;;;10.63;9.00;;;19.80;99.80;;;;;;4922449;29;21120;-91
2021/07/09 17:47:46;;;;;;;13.13;9.67;;;19.80;99.80;;;;;;4928459;29;21005;-89
2021/07/09 17:50:16;;;;;;;10.70;8.43;;;19.70;99.80;;;;;;4922142;29;20987;-89
2021/07/09 17:52:44;;;;;;;10.10;9.03;;;19.70;99.80;;;;;;4918207;29;20479;-90
2021/07/09 17:55:14;;;;;;;11.90;10.00;;;19.70;99.80;;;;;;4910843;29;20855;-90
2021/07/09 17:57:42;;;;;;;9.43;8.53;;;19.60;99.80;;;;;;4923196;29;20479;-90
2021/07/09 18:00:11;;;;;;;10.47;8.87;;;19.60;99.80;;;;;;4913000;29;20484;-90
2021/07/09 18:02:39;;;;;;;10.30;9.30;;;19.60;99.80;;;;;;4934644;29;20859;-90
2021/07/09 18:05:10;;;;;;;10.70;9.70;;;19.60;99.80;;;;;;4931921;29;20472;-91
2021/07/09 18:07:39;;;;;;;10.27;9.30;;;19.60;99.80;;;;;;4932855;29;20483;-90
2021/07/09 18:10:09;;;;;;;11.23;10.13;;;19.60;99.80;;;;;;4916005;29;20497;-90
2021/07/09 18:12:38;;;;;;;11.37;8.93;;;19.50;99.80;;;;;;4925405;29;20477;-91
2021/07/09 18:15:06;;;;;;;11.13;10.03;;;19.40;99.80;;;;;;4925041;29;20476;-91
2021/07/09 18:17:55;;;;;;;11.90;10.10;;;19.30;99.80;;;;;;4913633;29;20508;-90
2021/07/09 18:20:29;;;;;;;11.50;9.97;;;19.20;99.80;;;;;;4911643;29;20998;-90
2021/07/09 18:23:09;;;;;;;18.50;10.57;;;19.10;99.80;;;;;;4914098;29;20504;-91
2021/07/09 18:25:39;;;;;;;10.47;9.47;;;19.10;99.80;;;;;;4906319;29;20484;-90
2021/07/09 18:28:07;;;;;;;11.80;10.00;;;19.00;99.80;;;;;;4908732;29;20850;-90
2021/07/09 18:31:06;;;;;;;12.10;10.30;;;19.00;99.80;;;;;;4908587;29;21091;-90
2021/07/09 18:33:34;;;;;;;11.37;9.97;;;19.00;99.80;;;;;;4905568;29;20469;-92
2021/07/09 18:36:03;;;;;;;12.60;9.60;;;19.00;99.80;;;;;;4907461;29;20488;-91
2021/07/09 18:38:32;;;;;;;11.10;9.00;;;18.90;99.80;;;;;;4922456;29;21022;-90
2021/07/09 18:41:01;;;;;;;11.93;9.43;;;18.90;99.80;;;;;;4928297;29;20473;-91
2021/07/09 18:43:29;;;;;;;13.00;9.70;;;18.90;99.80;;;;;;4924964;29;20477;-91
2021/07/09 18:45:57;;;;;;;10.60;9.60;;;18.90;99.80;;;;;;4930128;29;20476;-91
2021/07/09 18:48:25;;;;;;;14.40;10.97;;;18.90;99.80;;;;;;4918433;29;20488;-90
2021/07/09 18:50:54;;;;;;;12.30;11.10;;;18.80;99.80;;;;;;4929278;29;20473;-90
2021/07/09 18:53:23;;;;;;;11.50;10.40;;;18.80;99.80;;;;;;4916823;29;20478;-90
2021/07/09 18:55:53;;;;;;;10.93;9.80;;;18.80;99.80;;;;;;4900636;29;20479;-90
2021/07/09 18:58:21;;;;;;;18.03;10.37;;;18.80;99.80;;;;;;4914074;29;20564;-90
2021/07/09 19:00:51;;;;;;;14.07;11.43;;;18.80;99.80;;;;;;4907204;29;20511;-90
2021/07/09 19:03:19;;;;;;;13.47;10.90;;;18.70;99.80;;;;;;4919117;29;20494;-91
2021/07/09 19:05:50;;;;;;;12.97;10.30;;;18.70;99.80;;;;;;4917694;29;20487;-90
2021/07/09 19:08:18;;;;;;;15.10;11.63;;;18.70;99.80;;;;;;4924064;29;20488;-90
2021/07/09 19:10:46;;;;;;;16.03;12.43;;;18.60;99.80;;;;;;4924568;29;20473;-89
2021/07/09 19:13:15;;;;;;;12.30;10.87;;;18.60;99.80;;;;;;4924128;29;20481;-89
2021/07/09 19:15:43;;;;;;;15.20;11.03;;;18.50;99.80;;;;;;4924141;29;21018;-90
2021/07/09 19:18:11;;;;;;;14.97;12.40;;;18.50;99.80;;;;;;4927596;29;20477;-89
2021/07/09 19:20:39;;;;;;;18.30;12.90;;;18.50;99.80;;;;;;4930873;29;20479;-89
2021/07/09 19:23:07;;;;;;;14.67;10.40;;;18.40;99.80;;;;;;4929571;29;20845;-89
2021/07/09 19:25:35;;;;;;;18.57;13.20;;;18.40;99.80;;;;;;4907255;29;20511;-90
2021/07/09 19:28:05;;;;;;;15.77;12.87;;;18.30;99.80;;;;;;4909362;29;20976;-89
2021/07/09 19:30:36;;;;;;;19.30;12.20;;;18.30;99.80;;;;;;4905982;29;20551;-89
2021/07/09 19:33:04;;;;;;;19.53;12.67;;;18.20;99.80;;;;;;4921250;29;20473;-88
2021/07/09 19:35:32;;;;;;;15.83;12.80;;;18.20;99.80;;;;;;4906945;28;20494;-89
2021/07/09 19:38:12;;;;;;;20.63;12.80;;;18.20;99.80;;;;;;4918354;29;20481;-88
2021/07/09 19:40:40;;;;;;;14.63;12.40;;;18.20;99.80;;;;;;4920431;29;20489;-90
2021/07/09 19:43:09;;;;;;;15.03;12.20;;;18.20;99.80;;;;;;4916868;29;20543;-88
2021/07/09 19:45:39;;;;;;;15.23;11.83;;;18.10;99.80;;;;;;4913889;29;20495;-88
2021/07/09 19:48:07;;;;;;;13.67;11.47;;;18.10;99.80;;;;;;4920949;29;20481;-88
2021/07/09 19:50:37;;;;;;;12.70;11.40;;;18.10;99.80;;;;;;4920412;29;20480;-88
2021/07/09 19:53:06;;;;;;;20.10;12.00;;;18.10;99.80;;;;;;4925866;29;20488;-89
2021/07/09 19:55:34;;;;;;;15.47;12.40;;;18.10;99.80;;;;;;4912131;29;20477;-87
2021/07/09 19:58:02;;;;;;;14.20;11.47;;;18.10;99.80;;;;;;4918795;29;21078;-89
2021/07/09 20:00:30;;;;;;;21.57;12.97;;;18.10;99.80;;;;;;4926718;29;20484;-87
2021/07/09 20:03:00;;;;;;;14.53;11.80;;;18.10;99.80;;;;;;4926743;29;20466;-88
2021/07/09 20:05:29;;;;;;;21.30;13.07;;;18.10;99.80;;;;;;4934428;28;20556;-89
2021/07/09 20:07:57;;;;;;;16.20;12.50;;;18.10;99.80;;;;;;4918009;29;21051;-90
2021/07/09 20:10:26;;;;;;;15.27;11.40;;;18.10;99.80;;;;;;4908448;29;20471;-89
2021/07/09 20:12:56;;;;;;;23.37;13.10;;;18.10;99.80;;;;;;4899307;29;21032;-89
2021/07/09 20:15:29;;;;;;;19.80;12.40;;;18.10;99.80;;;;;;4914257;29;20481;-89
2021/07/09 20:18:08;;;;;;;19.53;13.40;;;18.00;99.80;;;;;;4916573;29;20516;-89
2021/07/09 20:20:37;;;;;;;17.50;12.87;;;18.00;99.80;;;;;;4921784;29;20476;-89
2021/07/09 20:23:06;;;;;;;16.80;12.70;;;18.00;99.80;;;;;;4910362;29;20472;-90
2021/07/09 20:25:34;;;;;;;20.87;12.87;;;18.00;99.80;;;;;;4910042;29;20473;-90
2021/07/09 20:28:02;;;;;;;15.20;11.87;;;18.00;99.80;;;;;;4905673;29;21103;-89
2021/07/09 20:30:31;;;;;;;21.13;12.60;;;18.00;99.80;;;;;;4905496;29;20976;-89
2021/07/09 20:32:59;;;;;;;14.27;12.33;;;18.00;99.80;;;;;;4913553;29;20853;-92
2021/07/09 20:35:29;;;;;;;14.80;12.70;;;18.00;99.80;;;;;;4928483;29;20596;-91
2021/07/09 20:37:58;;;;;;;15.00;12.93;;;18.00;99.80;;;;;;4914234;29;20476;-88
2021/07/09 20:40:28;;;;;;;13.60;12.17;;;18.00;99.80;;;;;;4913413;29;20476;-90
2021/07/09 20:42:56;;;;;;;17.70;13.00;;;17.90;99.80;;;;;;4925956;29;20498;-87
2021/07/09 20:45:25;;;;;;;20.43;12.60;;;17.90;99.80;;;;;;4922059;28;20487;-87
2021/07/09 20:47:54;;;;;;;14.20;12.70;;;17.90;99.80;;;;;;4915074;29;20489;-87
2021/07/09 20:50:23;;;;;;;13.60;12.13;;;17.90;99.80;;;;;;4913000;29;20472;-89
2021/07/09 20:52:57;;;;;;;18.40;13.40;;;17.80;99.80;;;;;;4909402;29;20484;-89
2021/07/09 20:55:26;;;;;;;14.77;13.23;;;17.80;99.80;;;;;;4913009;29;20487;-89
2021/07/09 20:57:54;;;;;;;19.27;14.83;;;17.70;99.80;;;;;;4914487;29;20476;-89
2021/07/09 21:00:23;;;;;;;19.83;14.20;;;17.70;99.80;;;;;;4906332;29;20507;-89
2021/07/09 21:02:51;;;;;;;16.60;13.97;;;17.60;99.80;;;;;;4933362;29;20487;-90
2021/07/09 21:05:19;;;;;;;18.13;13.87;;;17.60;99.80;;;;;;4906779;29;20559;-89
2021/07/09 21:07:47;;;;;;;16.00;12.77;;;17.60;99.80;;;;;;4909194;29;20470;-88